Time,TemperatureF,DewpointF,PressureIn,WindDirection,WindDirectionDegrees,WindSpeedMPH,WindSpeedGustMPH,Humidity,HourlyPrecipIn,Conditions,Clouds,dailyrainin,SoftwareType,DateUTC
2013-08-24 00:00:00,62.4,60.7,30.16,North,0,0.0,0.0,94,0.00,,---,0.00,VWS V14.01,2013-08-24 04:00:00,
2013-08-24 00:30:00,62.1,60.7,30.17,North,0,0.0,0.0,95,0.00,,---,0.00,VWS V14.01,2013-08-24 04:30:00,
2013-08-24 01:00:00,61.8,60.7,30.17,North,0,0.0,0.0,96,0.00,,---,0.00,VWS V14.01,2013-08-24 05:00:00,
2013-08-24 01:30:00,61.7,60.8,30.17,North,0,0.0,0.0,97,0.00,,---,0.00,VWS V14.01,2013-08-24 05:30:00,
2013-08-24 02:00:00,61.6,60.7,30.17,North,0,0.0,0.0,97,0.00,,---,0.00,VWS V14.01,2013-08-24 06:00:00,
2013-08-24 02:30:00,61.6,61.0,30.18,North,0,0.0,0.0,98,0.00,,---,0.00,VWS V14.01,2013-08-24 06:30:00,
2013-08-24 03:00:00,61.6,61.0,30.18,North,0,0.0,0.0,98,0.00,,---,0.00,VWS V14.01,2013-08-24 07:00:00,
2013-08-24 03:30:00,61.8,61.2,30.19,North,0,0.0,0.0,98,0.00,,---,0.00,VWS V14.01,2013-08-24 07:30:00,
2013-08-24 04:00:00,62.0,61.4,30.20,North,0,0.0,0.0,98,0.00,,---,0.00,VWS V14.01,2013-08-24 08:00:00,
2013-08-24 04:30:00,61.9,61.3,30.20,North,0,0.0,0.0,98,0.00,,---,0.00,VWS V14.01,2013-08-24 08:30:00,
2013-08-24 05:00:00,61.7,61.4,30.21,North,0,0.0,0.0,99,0.00,,---,0.00,VWS V14.01,2013-08-24 09:00:00,
2013-08-24 05:30:00,61.4,61.1,30.22,North,0,0.0,0.0,99,0.00,,---,0.00,VWS V14.01,2013-08-24 09:30:00,
2013-08-24 06:00:00,61.2,60.9,30.23,North,0,0.0,0.0,99,0.00,,---,0.00,VWS V14.01,2013-08-24 10:00:00,
2013-08-24 06:30:00,60.7,60.4,30.25,North,0,0.0,0.0,99,0.00,,---,0.00,VWS V14.01,2013-08-24 10:30:00,
2013-08-24 07:00:00,60.4,60.1,30.25,North,0,0.0,0.0,99,0.00,,---,0.00,VWS V14.01,2013-08-24 11:00:00,
2013-08-24 07:30:00,60.8,60.5,30.27,North,0,0.0,0.0,99,0.00,,---,0.00,VWS V14.01,2013-08-24 11:30:00,
2013-08-24 08:00:00,62.0,61.4,30.27,NNW,338,0.0,2.0,98,0.00,,---,0.00,VWS V14.01,2013-08-24 12:00:00,
2013-08-24 08:30:00,65.7,62.0,30.28,NNW,338,0.0,3.0,88,0.00,,---,0.00,VWS V14.01,2013-08-24 12:30:00,
2013-08-24 09:00:00,68.6,61.5,30.30,North,0,0.0,7.0,78,0.00,,---,0.00,VWS V14.01,2013-08-24 13:00:00,
2013-08-24 09:30:00,70.3,62.4,30.30,ENE,68,0.0,4.0,76,0.00,,---,0.00,VWS V14.01,2013-08-24 13:30:00,
2013-08-24 10:00:00,72.0,63.3,30.31,NNE,22,0.0,3.0,74,0.00,,---,0.00,VWS V14.01,2013-08-24 14:00:00,
2013-08-24 10:30:00,73.6,64.4,30.31,NNW,338,0.0,4.0,73,0.00,,---,0.00,VWS V14.01,2013-08-24 14:30:00,
2013-08-24 11:00:00,75.2,65.2,30.32,ESE,112,0.0,3.0,71,0.00,,---,0.00,VWS V14.01,2013-08-24 15:00:00,
2013-08-24 11:30:00,76.7,65.8,30.32,ESE,112,0.0,3.0,69,0.00,,---,0.00,VWS V14.01,2013-08-24 15:30:00,
2013-08-24 12:00:00,78.2,65.9,30.31,NNW,338,0.0,3.0,66,0.00,,---,0.00,VWS V14.01,2013-08-24 16:00:00,
2013-08-24 12:30:00,79.2,66.9,30.31,ENE,68,0.0,3.0,66,0.00,,---,0.00,VWS V14.01,2013-08-24 16:30:00,
2013-08-24 13:00:00,80.9,66.2,30.31,North,0,0.0,3.0,61,0.00,,---,0.00,VWS V14.01,2013-08-24 17:00:00,
2013-08-24 13:30:00,82.0,65.3,30.31,NE,45,0.0,4.0,57,0.00,,---,0.00,VWS V14.01,2013-08-24 17:30:00,
2013-08-24 14:00:00,83.0,63.0,30.30,East,90,0.0,5.0,51,0.00,,---,0.00,VWS V14.01,2013-08-24 18:00:00,
2013-08-24 14:30:00,82.7,62.8,30.30,NNW,338,0.0,4.0,51,0.00,,---,0.00,VWS V14.01,2013-08-24 18:30:00,
2013-08-24 15:00:00,82.8,64.5,30.30,ENE,68,0.0,4.0,54,0.00,,---,0.00,VWS V14.01,2013-08-24 19:00:00,
2013-08-24 15:30:00,80.2,63.6,30.30,NNW,338,0.0,1.0,57,0.00,,---,0.00,VWS V14.01,2013-08-24 19:30:00,
2013-08-24 16:00:00,82.5,64.7,30.30,NE,45,0.0,2.0,55,0.00,,---,0.00,VWS V14.01,2013-08-24 20:00:00,
2013-08-24 16:30:00,80.3,63.7,30.30,North,0,0.0,1.0,57,0.00,,---,0.00,VWS V14.01,2013-08-24 20:30:00,
2013-08-24 17:00:00,81.0,62.8,30.30,NNE,22,0.0,2.0,54,0.00,,---,0.00,VWS V14.01,2013-08-24 21:00:00,
2013-08-24 17:30:00,81.2,62.5,30.30,NNW,338,0.0,2.0,53,0.00,,---,0.00,VWS V14.01,2013-08-24 21:30:00,
2013-08-24 18:00:00,80.7,62.5,30.30,NNW,338,0.0,1.0,54,0.00,,---,0.00,VWS V14.01,2013-08-24 22:00:00,
2013-08-24 18:30:00,80.0,62.9,30.30,NNW,338,0.0,1.0,56,0.00,,---,0.00,VWS V14.01,2013-08-24 22:30:00,
2013-08-24 19:00:00,78.7,61.2,30.30,NNW,338,0.0,0.0,55,0.00,,---,0.00,VWS V14.01,2013-08-24 23:00:00,
2013-08-24 19:30:00,77.1,62.6,30.31,NNW,338,0.0,1.0,61,0.00,,---,0.00,VWS V14.01,2013-08-24 23:30:00,
2013-08-24 20:00:00,75.8,63.6,30.32,NNW,338,0.0,1.0,66,0.00,,---,0.00,VWS V14.01,2013-08-25 00:00:00,
2013-08-24 20:30:00,74.1,63.7,30.33,NNW,338,0.0,0.0,70,0.00,,---,0.00,VWS V14.01,2013-08-25 00:30:00,
2013-08-24 21:00:00,72.4,64.0,30.34,NNW,338,0.0,0.0,75,0.00,,---,0.00,VWS V14.01,2013-08-25 01:00:00,
2013-08-24 21:30:00,70.5,63.7,30.36,NNW,338,0.0,0.0,79,0.00,,---,0.00,VWS V14.01,2013-08-25 01:30:00,
2013-08-24 22:00:00,69.4,63.3,30.37,NNW,338,0.0,0.0,81,0.00,,---,0.00,VWS V14.01,2013-08-25 02:00:00,
2013-08-24 22:30:00,68.9,63.2,30.37,NNW,338,0.0,0.0,82,0.00,,---,0.00,VWS V14.01,2013-08-25 02:30:00,
2013-08-24 23:00:00,69.5,65.1,30.37,NNW,338,0.0,1.0,86,0.00,,---,0.00,VWS V14.01,2013-08-25 03:00:00,
2013-08-24 23:30:00,70.4,66.3,30.38,West,270,0.0,3.0,87,0.00,,---,0.00,VWS V14.01,2013-08-25 03:30:00,